createdAt,value
2023-07-14T00:01:45.766Z,76.21
2023-07-14T00:04:14.556Z,76.42
2023-07-14T00:06:42.427Z,76.41
2023-07-14T00:09:27.811Z,76.68
2023-07-14T00:11:54.777Z,76.73
2023-07-14T00:14:21.639Z,76.71
2023-07-14T00:16:48.589Z,77.66
2023-07-14T00:19:17.994Z,78.30
2023-07-14T00:21:46.208Z,80.27
2023-07-14T00:24:18.560Z,79.77
2023-07-14T00:26:49.920Z,79.61
2023-07-14T00:29:39.128Z,78.84
2023-07-14T00:32:20.332Z,78.59
2023-07-14T00:34:48.009Z,78.70
2023-07-14T00:37:14.775Z,78.83
2023-07-14T00:39:42.354Z,78.62
2023-07-14T00:42:13.901Z,79.03
2023-07-14T00:44:40.530Z,79.31
2023-07-14T00:47:20.478Z,79.65
2023-07-14T00:49:48.885Z,80.22
2023-07-14T00:52:23.687Z,80.39
2023-07-14T00:54:52.663Z,80.25
2023-07-14T00:57:22.009Z,81.01
2023-07-14T00:59:49.228Z,81.26
2023-07-14T01:02:20.803Z,81.50
2023-07-14T01:04:49.479Z,81.17
2023-07-14T01:07:18.168Z,81.10
2023-07-14T01:09:46.506Z,80.62
2023-07-14T01:12:16.568Z,81.13
2023-07-14T01:14:47.365Z,81.05
2023-07-14T01:17:14.579Z,80.67
2023-07-14T01:19:49.838Z,81.37
2023-07-14T01:23:04.919Z,81.13
2023-07-14T01:25:37.602Z,81.02
2023-07-14T01:28:10.076Z,80.76
2023-07-14T01:30:38.299Z,81.47
2023-07-14T01:33:10.073Z,81.57
2023-07-14T01:35:40.868Z,81.13
2023-07-14T01:38:08.062Z,81.10
2023-07-14T01:40:35.142Z,81.32
2023-07-14T01:43:06.198Z,81.36
2023-07-14T01:45:42.259Z,81.49
2023-07-14T01:48:13.768Z,81.68
2023-07-14T01:50:53.309Z,81.98
2023-07-14T01:53:36.304Z,82.30
2023-07-14T01:56:08.390Z,82.52
2023-07-14T01:58:42.508Z,82.45
2023-07-14T02:01:12.485Z,83.02
2023-07-14T02:03:49.466Z,85.43
2023-07-14T02:06:16.532Z,86.48
2023-07-14T02:08:46.090Z,87.09
2023-07-14T02:11:24.613Z,87.05
2023-07-14T02:13:56.563Z,88.30
2023-07-14T02:16:24.550Z,88.70
2023-07-14T02:18:52.655Z,88.26
2023-07-14T02:21:26.294Z,87.22
2023-07-14T02:23:53.624Z,87.80
2023-07-14T02:26:28.152Z,88.21
2023-07-14T02:28:57.786Z,88.97
2023-07-14T02:31:41.748Z,90.54
2023-07-14T02:34:12.303Z,90.99
2023-07-14T02:36:46.175Z,91.39
2023-07-14T02:39:12.685Z,91.91
2023-07-14T02:41:42.515Z,92.08
2023-07-14T02:44:14.800Z,92.04
2023-07-14T02:46:56.734Z,91.73
2023-07-14T02:49:23.229Z,92.25
2023-07-14T02:51:50.046Z,91.21
2023-07-14T02:54:16.526Z,91.18
2023-07-14T02:56:43.832Z,91.37
2023-07-14T02:59:13.342Z,90.98
2023-07-14T03:01:39.869Z,90.28
2023-07-14T03:04:06.649Z,89.80
2023-07-14T03:06:33.348Z,89.91
2023-07-14T03:08:59.941Z,90.17
2023-07-14T03:11:29.369Z,89.81
2023-07-14T03:13:55.893Z,89.94
2023-07-14T03:16:22.498Z,89.62
2023-07-14T03:18:49.295Z,89.45
2023-07-14T03:21:16.164Z,89.57
2023-07-14T03:23:43.238Z,89.21
2023-07-14T03:26:10.657Z,88.92
2023-07-14T03:28:38.081Z,88.99
2023-07-14T03:31:05.760Z,89.34
2023-07-14T03:33:35.218Z,90.91
2023-07-14T03:36:07.669Z,91.62
2023-07-14T03:38:43.650Z,92.80
2023-07-14T03:41:12.000Z,94.90
2023-07-14T03:43:38.914Z,94.86
2023-07-14T03:46:05.560Z,94.38
2023-07-14T03:48:32.137Z,94.66
2023-07-14T03:51:05.162Z,94.22
2023-07-14T03:53:32.424Z,93.33
2023-07-14T03:55:59.254Z,92.65
2023-07-14T03:58:26.099Z,92.60
2023-07-14T04:00:52.794Z,93.02
2023-07-14T04:03:19.491Z,93.28
2023-07-14T04:05:48.857Z,93.38
2023-07-14T04:08:15.518Z,93.09
2023-07-14T04:10:42.136Z,93.23
2023-07-14T04:13:09.369Z,93.35
2023-07-14T04:15:35.905Z,93.59
2023-07-14T04:18:02.769Z,93.47
2023-07-14T04:20:29.696Z,92.15
2023-07-14T04:22:56.586Z,93.21
2023-07-14T04:25:23.113Z,93.08
2023-07-14T04:27:50.739Z,93.98
2023-07-14T04:30:17.490Z,94.02
2023-07-14T04:32:44.450Z,94.63
2023-07-14T04:35:11.147Z,95.67
2023-07-14T04:37:37.703Z,95.46
2023-07-14T04:40:09.851Z,96.15
2023-07-14T04:42:42.700Z,97.45
2023-07-14T04:45:09.556Z,97.48
2023-07-14T04:47:36.096Z,96.55
2023-07-14T04:50:02.669Z,96.45
2023-07-14T04:52:29.431Z,96.62
2023-07-14T04:54:56.136Z,96.82
2023-07-14T04:57:22.667Z,97.43
2023-07-14T04:59:49.491Z,96.81
2023-07-14T05:02:16.059Z,96.63
2023-07-14T05:05:00.213Z,97.21
2023-07-14T05:07:27.451Z,98.04
2023-07-14T05:09:54.042Z,98.09
2023-07-14T05:12:20.536Z,98.33
2023-07-14T05:14:47.191Z,97.74
2023-07-14T05:17:13.711Z,99.15
2023-07-14T05:19:40.241Z,98.46
2023-07-14T05:22:06.830Z,96.42
2023-07-14T05:24:33.342Z,97.15
2023-07-14T05:27:00.884Z,98.37
2023-07-14T05:29:27.545Z,98.64
2023-07-14T05:31:54.052Z,96.14
2023-07-14T05:34:20.568Z,96.13
2023-07-14T05:36:47.778Z,97.18
2023-07-14T05:39:14.312Z,98.07
2023-07-14T05:41:40.850Z,98.21
2023-07-14T05:44:07.440Z,99.22
2023-07-14T05:46:33.983Z,99.34
2023-07-14T05:49:00.756Z,99.43
2023-07-14T05:51:27.291Z,99.83
2023-07-14T05:53:54.023Z,96.57
2023-07-14T05:56:21.111Z,97.24
2023-07-14T05:58:47.627Z,97.39
2023-07-14T06:01:14.276Z,96.29
2023-07-14T06:03:40.887Z,96.32
2023-07-14T06:06:07.496Z,96.79
2023-07-14T06:08:34.684Z,92.01
2023-07-14T06:11:01.282Z,87.73
2023-07-14T06:13:29.341Z,89.16
2023-07-14T06:15:55.855Z,88.02
2023-07-14T06:18:22.415Z,84.09
2023-07-14T06:20:49.058Z,88.24
2023-07-14T06:23:15.655Z,87.17
2023-07-14T06:25:43.048Z,89.08
2023-07-14T06:28:12.759Z,88.87
2023-07-14T06:30:39.418Z,86.24
2023-07-14T06:33:08.894Z,88.92
2023-07-14T06:35:38.657Z,85.36
2023-07-14T06:38:08.382Z,82.85
2023-07-14T06:40:34.894Z,83.52
2023-07-14T06:43:02.093Z,85.07
2023-07-14T06:45:28.779Z,85.06
2023-07-14T06:47:56.324Z,84.03
2023-07-14T06:50:22.846Z,82.16
2023-07-14T06:52:49.407Z,81.63
2023-07-14T06:55:15.998Z,80.28
2023-07-14T06:57:42.637Z,81.82
2023-07-14T07:00:13.463Z,81.42
2023-07-14T07:02:40.543Z,80.63
2023-07-14T07:05:08.239Z,78.25
2023-07-14T07:07:35.497Z,78.60
2023-07-14T07:10:02.901Z,80.85
2023-07-14T07:12:29.522Z,80.46
2023-07-14T07:14:56.199Z,80.69
2023-07-14T07:17:22.990Z,79.30
2023-07-14T07:19:50.195Z,80.48
2023-07-14T07:22:16.771Z,79.69
2023-07-14T07:24:43.439Z,80.88
2023-07-14T07:27:10.051Z,79.14
2023-07-14T07:29:36.674Z,77.16
2023-07-14T07:32:04.915Z,78.74
2023-07-14T07:34:31.724Z,78.21
2023-07-14T07:36:58.338Z,80.50
2023-07-14T07:39:26.159Z,75.58
2023-07-14T07:41:52.804Z,76.15
2023-07-14T07:44:19.642Z,73.14
2023-07-14T07:46:46.175Z,73.46
2023-07-14T07:49:12.829Z,72.50
2023-07-14T07:51:39.796Z,71.53
2023-07-14T07:54:06.354Z,71.83
2023-07-14T07:56:36.358Z,70.38
2023-07-14T07:59:03.087Z,70.75
2023-07-14T08:01:29.660Z,71.81
2023-07-14T08:03:56.480Z,71.47
2023-07-14T08:06:23.165Z,74.53
2023-07-14T08:08:50.024Z,70.39
2023-07-14T08:11:16.565Z,70.00
2023-07-14T08:13:43.480Z,67.35
2023-07-14T08:16:11.940Z,63.32
2023-07-14T08:18:38.956Z,67.82
2023-07-14T08:21:06.375Z,65.27
2023-07-14T08:23:35.529Z,67.11
2023-07-14T08:26:04.276Z,64.32
2023-07-14T08:28:31.784Z,60.21
2023-07-14T08:31:05.529Z,61.39
2023-07-14T08:33:32.429Z,61.41
2023-07-14T08:36:01.708Z,62.25
2023-07-14T08:38:31.705Z,62.88
2023-07-14T08:41:07.618Z,60.60
2023-07-14T08:44:00.337Z,60.37
2023-07-14T08:46:33.412Z,62.80
2023-07-14T08:49:15.170Z,58.93
2023-07-14T08:51:47.516Z,57.61
2023-07-14T08:54:22.025Z,55.35
2023-07-14T08:56:50.283Z,59.30
2023-07-14T08:59:39.470Z,60.23
2023-07-14T09:02:25.164Z,57.73
2023-07-14T09:05:01.875Z,61.33
2023-07-14T09:07:28.638Z,64.74
2023-07-14T09:09:55.555Z,65.22
2023-07-14T09:12:35.466Z,66.44
2023-07-14T09:15:13.004Z,65.42
2023-07-14T09:17:54.165Z,62.18
2023-07-14T09:20:20.663Z,59.44
2023-07-14T09:22:59.536Z,62.46
2023-07-14T09:25:40.194Z,62.67
2023-07-14T09:28:18.769Z,63.14
2023-07-14T09:30:47.265Z,62.93
2023-07-14T09:33:18.260Z,61.88
2023-07-14T09:35:46.352Z,59.76
2023-07-14T09:38:42.992Z,53.93
2023-07-14T09:41:16.203Z,53.36
2023-07-14T09:43:42.760Z,57.02
2023-07-14T09:46:12.135Z,55.02
2023-07-14T09:48:46.115Z,58.40
2023-07-14T09:51:17.203Z,59.04
2023-07-14T09:54:00.625Z,61.27
2023-07-14T09:56:32.307Z,59.45
2023-07-14T09:59:03.372Z,58.20
2023-07-14T10:01:31.200Z,60.41
2023-07-14T10:04:08.631Z,60.12
2023-07-14T10:06:35.389Z,60.52
2023-07-14T10:09:13.049Z,63.87
2023-07-14T10:11:42.562Z,65.39
2023-07-14T10:14:36.360Z,61.40
2023-07-14T10:17:05.781Z,62.02
2023-07-14T10:19:40.035Z,57.03
2023-07-14T10:22:14.727Z,55.15
2023-07-14T10:24:46.808Z,55.38
2023-07-14T10:27:22.453Z,53.95
2023-07-14T10:30:12.370Z,54.14
2023-07-14T10:32:53.330Z,55.95
2023-07-14T10:35:25.333Z,49.59
2023-07-14T10:38:10.684Z,51.38
2023-07-14T10:40:42.593Z,49.28
2023-07-14T10:43:21.974Z,48.01
2023-07-14T10:45:55.806Z,45.45
2023-07-14T10:48:30.526Z,46.33
2023-07-14T10:51:20.547Z,48.94
2023-07-14T10:53:56.542Z,49.96
2023-07-14T10:56:31.362Z,53.04
2023-07-14T10:59:07.757Z,53.87
2023-07-14T11:01:37.911Z,48.71
2023-07-14T11:04:20.102Z,48.55
2023-07-14T11:06:50.469Z,49.92
2023-07-14T11:09:17.171Z,48.29
2023-07-14T11:11:53.759Z,50.40
2023-07-14T11:14:26.062Z,47.39
2023-07-14T11:17:20.240Z,47.41
2023-07-14T11:19:49.617Z,47.25
2023-07-14T11:22:50.516Z,47.17
2023-07-14T11:25:24.807Z,48.56
2023-07-14T11:28:20.688Z,48.68
2023-07-14T11:30:52.274Z,46.51
2023-07-14T11:33:38.135Z,47.53
2023-07-14T11:36:25.935Z,47.67
2023-07-14T11:39:02.227Z,49.23
2023-07-14T11:41:29.597Z,48.39
2023-07-14T11:43:56.369Z,48.68
2023-07-14T11:46:25.533Z,50.73
2023-07-14T11:48:55.185Z,50.38
2023-07-14T11:51:42.919Z,48.63
2023-07-14T11:54:17.124Z,47.28
2023-07-14T11:57:04.647Z,48.73
2023-07-14T11:59:33.493Z,46.67
2023-07-14T12:02:42.337Z,48.46
2023-07-14T12:05:14.909Z,50.45
2023-07-14T12:08:09.769Z,47.89
2023-07-14T12:10:39.348Z,46.51
2023-07-14T12:13:35.089Z,46.23
2023-07-14T12:16:01.621Z,46.09
2023-07-14T12:18:32.776Z,46.51
2023-07-14T12:21:17.561Z,48.83
2023-07-14T12:23:54.618Z,47.75
2023-07-14T12:26:53.820Z,48.26
2023-07-14T12:29:22.654Z,49.44
2023-07-14T12:31:52.022Z,48.22
2023-07-14T12:34:20.683Z,48.20
2023-07-14T12:36:47.484Z,48.12
2023-07-14T12:39:14.069Z,48.48
2023-07-14T12:41:44.246Z,49.01
2023-07-14T12:44:25.642Z,49.28
2023-07-14T12:46:55.723Z,46.90
2023-07-14T12:49:31.699Z,44.50
2023-07-14T12:51:59.757Z,44.77
2023-07-14T12:54:29.022Z,46.42
2023-07-14T12:56:59.559Z,46.66
2023-07-14T12:59:26.129Z,48.50
2023-07-14T13:01:53.791Z,49.26
2023-07-14T13:04:22.255Z,47.91
2023-07-14T13:06:55.781Z,43.74
2023-07-14T13:09:26.026Z,41.63
2023-07-14T13:11:54.178Z,42.83
2023-07-14T13:14:24.390Z,42.33
2023-07-14T13:16:58.444Z,44.85
2023-07-14T13:19:47.314Z,45.40
2023-07-14T13:22:26.517Z,47.44
2023-07-14T13:25:19.632Z,44.19
2023-07-14T13:27:46.573Z,43.36
2023-07-14T13:30:20.247Z,43.82
2023-07-14T13:32:52.100Z,44.12
2023-07-14T13:35:52.334Z,44.39
2023-07-14T13:38:19.189Z,44.43
2023-07-14T13:40:52.063Z,45.01
2023-07-14T13:43:21.920Z,43.81
2023-07-14T13:45:59.973Z,42.92
2023-07-14T13:48:35.508Z,41.98
2023-07-14T13:51:11.392Z,43.47
2023-07-14T13:53:37.883Z,43.21
2023-07-14T13:56:04.478Z,43.21
2023-07-14T13:58:31.058Z,42.86
2023-07-14T14:00:57.932Z,43.54
2023-07-14T14:03:27.353Z,44.97
2023-07-14T14:05:54.051Z,44.30
2023-07-14T14:08:20.791Z,44.18
2023-07-14T14:10:48.583Z,45.20
2023-07-14T14:13:16.442Z,44.16
2023-07-14T14:15:48.698Z,44.49
2023-07-14T14:18:24.638Z,44.85
2023-07-14T14:20:54.258Z,45.48
2023-07-14T14:23:21.512Z,45.38
2023-07-14T14:25:49.167Z,42.75
2023-07-14T14:28:18.084Z,44.57
2023-07-14T14:30:48.648Z,46.52
2023-07-14T14:33:24.415Z,45.25
2023-07-14T14:35:51.155Z,43.79
2023-07-14T14:38:36.889Z,43.82
2023-07-14T14:41:19.339Z,44.81
2023-07-14T14:43:47.493Z,42.47
2023-07-14T14:46:14.124Z,43.27
2023-07-14T14:48:42.238Z,43.17
2023-07-14T14:51:13.662Z,44.31
2023-07-14T14:53:42.029Z,43.34
2023-07-14T14:56:22.365Z,42.88
2023-07-14T14:58:54.235Z,42.30
2023-07-14T15:01:40.416Z,41.58
2023-07-14T15:04:16.096Z,41.89
2023-07-14T15:06:42.716Z,41.55
2023-07-14T15:09:09.839Z,41.95
2023-07-14T15:11:37.344Z,41.97
2023-07-14T15:14:10.249Z,41.73
2023-07-14T15:16:37.700Z,43.09
2023-07-14T15:19:05.129Z,43.10
2023-07-14T15:21:31.634Z,43.35
2023-07-14T15:23:58.255Z,42.63
2023-07-14T15:26:33.313Z,43.10
2023-07-14T15:29:05.465Z,42.94
2023-07-14T15:31:34.171Z,42.68
2023-07-14T15:36:28.925Z,42.56
2023-07-14T15:38:55.426Z,42.50
2023-07-14T15:41:22.999Z,44.01
2023-07-14T15:43:50.985Z,42.14
2023-07-14T15:46:19.264Z,41.84
2023-07-14T15:48:48.266Z,42.15
2023-07-14T15:51:19.268Z,42.43
2023-07-14T15:53:46.140Z,42.54
2023-07-14T15:56:22.058Z,42.35
2023-07-14T15:58:49.124Z,43.17
2023-07-14T16:01:28.428Z,42.82
2023-07-14T16:03:57.713Z,42.68
2023-07-14T16:06:25.488Z,42.65
2023-07-14T16:08:55.406Z,43.67
2023-07-14T16:11:25.578Z,43.46
2023-07-14T16:13:52.229Z,42.70
2023-07-14T16:16:18.862Z,43.28
2023-07-14T16:18:45.787Z,43.24
2023-07-14T16:21:21.901Z,42.30
2023-07-14T16:23:48.737Z,42.62
2023-07-14T16:26:16.516Z,44.12
2023-07-14T16:28:43.072Z,45.88
2023-07-14T16:31:17.354Z,46.78
2023-07-14T16:33:44.291Z,44.67
2023-07-14T16:36:26.938Z,45.37
2023-07-14T16:38:57.789Z,45.76
2023-07-14T16:41:24.323Z,45.29
2023-07-14T16:43:50.934Z,45.48
2023-07-14T16:46:17.927Z,45.72
2023-07-14T16:48:45.577Z,46.06
2023-07-14T16:51:16.170Z,45.19
2023-07-14T16:53:42.757Z,44.54
2023-07-14T16:56:13.906Z,44.64
2023-07-14T16:58:41.577Z,45.18
2023-07-14T17:01:17.482Z,44.48
2023-07-14T17:03:44.565Z,44.58
2023-07-14T17:06:12.593Z,44.31
2023-07-14T17:08:43.113Z,44.91
2023-07-14T17:11:10.783Z,45.19
2023-07-14T17:13:39.981Z,46.91
2023-07-14T17:16:09.516Z,46.24
2023-07-14T17:18:39.982Z,47.72
2023-07-14T17:21:10.224Z,46.42
2023-07-14T17:23:39.272Z,45.84
2023-07-14T17:26:06.543Z,45.93
2023-07-14T17:28:35.356Z,45.59
2023-07-14T17:31:02.455Z,44.97
2023-07-14T17:33:29.815Z,45.39
2023-07-14T17:36:06.330Z,45.01
2023-07-14T17:38:36.420Z,44.94
2023-07-14T17:41:03.261Z,43.79
2023-07-14T17:43:29.809Z,44.03
2023-07-14T17:45:56.326Z,44.47
2023-07-14T17:48:23.001Z,44.79
2023-07-14T17:50:54.586Z,44.92
2023-07-14T17:53:22.677Z,44.97
2023-07-14T17:55:50.192Z,44.86
2023-07-14T17:58:19.727Z,45.48
2023-07-14T18:00:47.318Z,45.28
2023-07-14T18:03:32.120Z,45.50
2023-07-14T18:05:59.840Z,44.74
2023-07-14T18:08:28.736Z,45.99
2023-07-14T18:11:02.963Z,46.21
2023-07-14T18:13:39.224Z,46.30
2023-07-14T18:16:05.843Z,46.42
2023-07-14T18:18:32.961Z,46.20
2023-07-14T18:21:02.033Z,47.03
2023-07-14T18:23:31.766Z,48.56
2023-07-14T18:25:59.563Z,50.74
2023-07-14T18:28:29.342Z,50.47
2023-07-14T18:30:56.962Z,49.01
2023-07-14T18:33:29.970Z,47.22
2023-07-14T18:35:57.426Z,46.46
2023-07-14T18:38:28.038Z,47.01
2023-07-14T18:40:57.373Z,46.25
2023-07-14T18:43:40.823Z,47.00
2023-07-14T18:46:11.438Z,47.82
2023-07-14T18:48:38.471Z,47.21
2023-07-14T18:51:25.568Z,48.53
2023-07-14T18:53:55.862Z,49.17
2023-07-14T18:56:22.664Z,51.11
2023-07-14T18:58:49.842Z,53.85
2023-07-14T19:01:21.346Z,55.36
2023-07-14T19:03:49.267Z,53.95
2023-07-14T19:06:25.698Z,54.90
2023-07-14T19:08:58.845Z,57.82
2023-07-14T19:11:25.998Z,58.12
2023-07-14T19:13:54.144Z,59.43
2023-07-14T19:16:26.382Z,60.62
2023-07-14T19:18:54.159Z,60.97
2023-07-14T19:21:26.208Z,60.71
2023-07-14T19:23:53.157Z,62.86
2023-07-14T19:26:20.047Z,61.82
2023-07-14T19:28:47.573Z,62.05
2023-07-14T19:31:21.917Z,62.72
2023-07-14T19:33:49.676Z,63.20
2023-07-14T19:36:18.184Z,64.18
2023-07-14T19:38:45.880Z,64.24
2023-07-14T19:41:14.403Z,64.33
2023-07-14T19:43:41.223Z,63.31
2023-07-14T19:46:16.409Z,64.14
2023-07-14T19:48:43.781Z,65.81
2023-07-14T19:51:23.242Z,65.13
2023-07-14T19:53:51.527Z,61.68
2023-07-14T19:56:20.166Z,65.01
2023-07-14T19:58:48.806Z,65.84
2023-07-14T20:01:17.107Z,63.29
2023-07-14T20:03:44.508Z,64.35
2023-07-14T20:06:17.128Z,63.46
2023-07-14T20:08:44.440Z,64.02
2023-07-14T20:11:18.703Z,63.33
2023-07-14T20:13:45.256Z,64.12
2023-07-14T20:16:17.459Z,62.98
2023-07-14T20:18:46.593Z,61.62
2023-07-14T20:21:26.615Z,62.88
2023-07-14T20:23:53.811Z,65.19
2023-07-14T20:26:20.326Z,64.85
2023-07-14T20:28:49.954Z,64.72
2023-07-14T20:31:23.514Z,65.05
2023-07-14T20:33:53.929Z,66.05
2023-07-14T20:36:23.508Z,65.15
2023-07-14T20:38:50.757Z,63.92
2023-07-14T20:41:35.826Z,66.27
2023-07-14T20:44:02.634Z,69.07
2023-07-14T20:46:33.826Z,69.62
2023-07-14T20:49:16.178Z,69.36
2023-07-14T20:51:43.831Z,68.28
2023-07-14T20:54:13.696Z,68.82
2023-07-14T20:56:40.778Z,66.07
2023-07-14T20:59:07.496Z,66.60
2023-07-14T21:01:35.852Z,67.38
2023-07-14T21:04:18.718Z,65.24
2023-07-14T21:06:45.312Z,67.18
2023-07-14T21:09:12.439Z,68.20
2023-07-14T21:11:39.347Z,67.98
2023-07-14T21:14:10.878Z,64.08
2023-07-14T21:16:37.650Z,63.97
2023-07-14T21:19:04.332Z,63.70
2023-07-14T21:21:36.383Z,64.77
2023-07-14T21:24:12.876Z,65.57
2023-07-14T21:26:39.413Z,67.44
2023-07-14T21:29:07.204Z,68.13
2023-07-14T21:31:42.372Z,67.24
2023-07-14T21:34:14.875Z,66.35
2023-07-14T21:36:41.821Z,67.07
2023-07-14T21:39:22.228Z,66.51
2023-07-14T21:41:50.799Z,67.70
2023-07-14T21:44:17.697Z,67.64
2023-07-14T21:46:44.646Z,67.47
2023-07-14T21:49:13.122Z,68.46
2023-07-14T21:51:40.064Z,69.10
2023-07-14T21:54:10.178Z,69.06
2023-07-14T21:56:40.267Z,68.77
2023-07-14T21:59:15.340Z,67.62
2023-07-14T22:01:48.852Z,65.75
2023-07-14T22:04:29.812Z,64.08
2023-07-14T22:06:57.266Z,66.66
2023-07-14T22:09:24.364Z,65.62
2023-07-14T22:11:50.928Z,65.46
2023-07-14T22:14:20.524Z,67.98
2023-07-14T22:16:47.103Z,69.87
2023-07-14T22:19:15.772Z,68.61
2023-07-14T22:21:43.447Z,69.88
2023-07-14T22:24:17.842Z,70.81
2023-07-14T22:26:45.088Z,69.98
2023-07-14T22:29:11.681Z,67.94
2023-07-14T22:31:39.180Z,70.20
2023-07-14T22:34:17.291Z,70.81
2023-07-14T22:36:44.405Z,69.23
2023-07-14T22:39:13.479Z,69.18
2023-07-14T22:41:42.318Z,70.74
2023-07-14T22:44:13.045Z,71.05
2023-07-14T22:46:39.680Z,69.26
2023-07-14T22:49:06.240Z,70.76
2023-07-14T22:51:34.662Z,72.77
2023-07-14T22:54:05.081Z,72.53
2023-07-14T22:56:31.698Z,71.24
2023-07-14T22:58:58.975Z,72.75
2023-07-14T23:01:32.971Z,71.88
2023-07-14T23:04:00.145Z,69.82
2023-07-14T23:06:28.001Z,71.24
2023-07-14T23:08:55.575Z,71.84
2023-07-14T23:11:32.725Z,71.66
2023-07-14T23:14:00.101Z,72.31
2023-07-14T23:16:27.201Z,71.81
2023-07-14T23:18:53.950Z,71.13
2023-07-14T23:21:28.872Z,71.50
2023-07-14T23:23:56.554Z,71.52
2023-07-14T23:26:26.496Z,72.76
2023-07-14T23:28:56.540Z,73.56
2023-07-14T23:31:28.845Z,74.40
2023-07-14T23:33:55.562Z,72.66
2023-07-14T23:36:23.902Z,71.79
2023-07-14T23:38:50.606Z,72.22
2023-07-14T23:41:30.171Z,71.58
2023-07-14T23:43:58.701Z,73.86
2023-07-14T23:46:26.549Z,72.56
2023-07-14T23:48:53.984Z,72.91
2023-07-14T23:51:26.601Z,71.90
2023-07-14T23:53:53.485Z,74.28
2023-07-14T23:56:20.789Z,74.79
2023-07-14T23:58:47.392Z,74.20
